TimeCET,TemperatureF,Dew PointF,Humidity,Sea Level PressureIn,VisibilityMPH,Wind Direction,Wind SpeedMPH,Gust SpeedMPH,PrecipitationIn,Events,Conditions,WindDirDegrees,DateUTC
12:00 AM,57.2,57.2,100,30.15,6.2,Calm,Calm,-,N/A,,Scattered Clouds,0,2012-11-22 23:00:00
1:00 AM,55.4,55.4,100,30.15,6.2,Variable,2.3,-,N/A,,Scattered Clouds,0,2012-11-23 00:00:00
2:00 AM,53.6,53.6,100,30.15,6.2,SSE,1.2,-,N/A,,Scattered Clouds,150,2012-11-23 01:00:00
3:00 AM,53.6,53.6,100,30.15,6.2,Variable,1.2,-,N/A,,Scattered Clouds,0,2012-11-23 02:00:00
4:00 AM,53.6,53.6,100,30.15,6.2,Calm,Calm,-,N/A,,Scattered Clouds,0,2012-11-23 03:00:00
5:00 AM,51.8,51.8,100,30.12,6.2,Calm,Calm,-,N/A,,Scattered Clouds,0,2012-11-23 04:00:00
6:00 AM,51.8,51.8,100,30.12,5.6,Calm,Calm,-,N/A,,Scattered Clouds,0,2012-11-23 05:00:00
7:00 AM,48.2,48.2,100,30.12,0.2,SSE,4.6,-,N/A,Fog,Patches of Fog,150,2012-11-23 06:00:00
8:00 AM,50.0,50.0,100,30.12,0.5,Calm,Calm,-,N/A,Fog,Patches of Fog,0,2012-11-23 07:00:00
8:15 AM,50.0,50.0,100,30.12,0.5,Calm,Calm,-,N/A,Fog,Patches of Fog,0,2012-11-23 07:15:00
8:30 AM,48.2,48.2,100,30.12,0.3,Calm,Calm,-,N/A,Fog,Patches of Fog,0,2012-11-23 07:30:00
9:00 AM,48.2,48.2,100,30.12,0.5,NNE,2.3,-,N/A,Fog,Patches of Fog,30,2012-11-23 08:00:00
9:10 AM,50.0,50.0,100,30.12,0.9,North,1.2,-,N/A,Fog,Patches of Fog,360,2012-11-23 08:10:00
9:30 AM,50.0,50.0,100,30.15,2.5,NNE,1.2,-,N/A,Fog,Patches of Fog,30,2012-11-23 08:30:00
9:50 AM,51.8,51.8,100,30.15,3.1,NNE,1.2,-,N/A,,Mist,30,2012-11-23 08:50:00
10:00 AM,53.6,53.6,100,30.15,3.1,Variable,1.2,-,N/A,,Mist,0,2012-11-23 09:00:00
11:00 AM,57.2,57.2,100,30.15,3.7,Variable,3.5,-,N/A,,Unknown,0,2012-11-23 10:00:00
12:00 PM,62.6,53.6,72,30.15,5.0,Variable,1.2,-,N/A,,Unknown,0,2012-11-23 11:00:00
1:00 PM,66.2,55.4,68,30.12,-9999.0,Variable,1.2,-,N/A,,Clear,0,2012-11-23 12:00:00
2:00 PM,68.0,55.4,64,30.09,-9999.0,Calm,Calm,-,N/A,,Clear,0,2012-11-23 13:00:00
3:00 PM,68.0,53.6,60,30.06,-9999.0,Calm,Calm,-,N/A,,Clear,0,2012-11-23 14:00:00
4:00 PM,68.0,51.8,56,30.06,-9999.0,North,1.2,-,N/A,,Clear,360,2012-11-23 15:00:00
5:00 PM,66.2,57.2,73,30.06,-9999.0,Variable,1.2,-,N/A,,Clear,0,2012-11-23 16:00:00
6:00 PM,62.6,57.2,82,30.06,-9999.0,North,4.6,-,N/A,,Clear,360,2012-11-23 17:00:00
7:00 PM,62.6,57.2,82,30.06,-9999.0,Variable,2.3,-,N/A,,Clear,0,2012-11-23 18:00:00
8:00 PM,59.0,57.2,94,30.06,6.2,Calm,Calm,-,N/A,,Partly Cloudy,0,2012-11-23 19:00:00
9:00 PM,57.2,55.4,94,30.06,6.2,East,1.2,-,N/A,,Partly Cloudy,90,2012-11-23 20:00:00
10:00 PM,57.2,55.4,94,30.06,6.2,Variable,1.2,-,N/A,,Partly Cloudy,0,2012-11-23 21:00:00
11:00 PM,57.2,55.4,94,30.06,6.2,Calm,Calm,-,N/A,,Partly Cloudy,0,2012-11-23 22:00:00